This is the latest recevied weather packets stored in our database for station/object KO6LQJ. If no packets are shown the sender has not sent any weather packets the latest 1 day(s).
| Time | Temp. | Humidity | Pressure | Rain* | Wind** | Luminosity | Snow |
|---|---|---|---|---|---|---|---|
| 1778033887 | 16.67° C | 54% | 1016.3 hPa | 0 mm | - | 5 W/m² | - |
| 1778033584 | 16.67° C | 55% | 1016.3 hPa | 0 mm | - | 8 W/m² | - |
| 1778033280 | 17.22° C | 54% | 1016.2 hPa | 0 mm | - | 12 W/m² | - |
| 1778032676 | 17.78° C | 53% | 1016 hPa | 0 mm | - | 31 W/m² | - |
| 1778032373 | 17.22° C | 54% | 1016.1 hPa | 0 mm | - | 26 W/m² | - |
| 1778032069 | 17.22° C | 55% | 1016.2 hPa | 0 mm | - | 26 W/m² | - |
| 1778031766 | 17.22° C | 54% | 1016.1 hPa | 0 mm | - | 16 W/m² | - |
| 1778031463 | 17.22° C | 54% | 1016.4 hPa | 0 mm | - | 26 W/m² | - |
| 1778031160 | 17.22° C | 54% | 1016.1 hPa | 0 mm | - | 34 W/m² | - |
| 1778030857 | 17.22° C | 54% | 1016.2 hPa | 0 mm | - | 35 W/m² | - |
| 1778030554 | 17.22° C | 54% | 1016.2 hPa | 0 mm | - | 38 W/m² | - |
| 1778030251 | 17.78° C | 53% | 1016.2 hPa | 0 mm | - | 33 W/m² | - |
| 1778029947 | 17.78° C | 53% | 1015.9 hPa | 0 mm | - | 31 W/m² | - |
| 1778029646 | 17.78° C | 53% | 1016.2 hPa | 0 mm | - | 40 W/m² | - |
| 1778029343 | 17.78° C | 54% | 1016 hPa | 0 mm | - | 44 W/m² | - |
| 1778029040 | 17.78° C | 53% | 1016.2 hPa | 0 mm | - | 57 W/m² | - |
| 1778027826 | 17.78° C | 52% | 1016 hPa | 0 mm | - | 58 W/m² | - |
| 1778027218 | 18.33° C | 51% | 1016 hPa | 0 mm | - | 79 W/m² | - |
| 1778026915 | 18.89° C | 50% | 1015.6 hPa | 0 mm | - | 90 W/m² | - |
| 1778026308 | 18.33° C | 49% | 1015.9 hPa | 0 mm | - | 114 W/m² | - |
| 1778025098 | 19.44° C | 48% | 1015.8 hPa | 0 mm | - | 147 W/m² | - |
| 1778022374 | 20° C | 44% | 1015.7 hPa | 0 mm | - | 196 W/m² | - |
| 1778020857 | 18.89° C | 45% | 1016.1 hPa | 0 mm | - | 154 W/m² | - |
| 1778019643 | 18.89° C | 44% | 1016.3 hPa | 0 mm | - | 126 W/m² | - |
| 1778019340 | 18.89° C | 45% | 1016.4 hPa | 0 mm | - | 129 W/m² | - |
* Rain latest hour (hover to see other rain measurements)
** Current wind speed in m/s (hover to see current wind gust speed)